sensor_id;sensor_type;location;lat;lon;timestamp;pressure;altitude;pressure_sealevel;temperature;humidity
10732;BME280;74907;42.812;23.216;2024-01-27T00:00:35;95976.44;;;1.24;77.41
10732;BME280;74907;42.812;23.216;2024-01-27T00:03:02;95982.41;;;1.25;77.66
10732;BME280;74907;42.812;23.216;2024-01-27T00:05:29;95984.13;;;1.24;77.68
10732;BME280;74907;42.812;23.216;2024-01-27T00:07:55;95980.50;;;1.35;77.75
10732;BME280;74907;42.812;23.216;2024-01-27T00:10:23;95970.84;;;1.46;78.40
10732;BME280;74907;42.812;23.216;2024-01-27T00:12:50;95973.28;;;1.52;78.29
10732;BME280;74907;42.812;23.216;2024-01-27T00:15:17;95962.84;;;1.61;78.23
10732;BME280;74907;42.812;23.216;2024-01-27T00:17:44;95966.06;;;1.71;77.90
10732;BME280;74907;42.812;23.216;2024-01-27T00:20:11;95977.97;;;1.73;76.80
10732;BME280;74907;42.812;23.216;2024-01-27T00:22:38;95964.19;;;1.77;76.81
10732;BME280;74907;42.812;23.216;2024-01-27T00:25:05;95970.22;;;1.76;76.74
10732;BME280;74907;42.812;23.216;2024-01-27T00:27:33;95968.34;;;1.83;76.20
10732;BME280;74907;42.812;23.216;2024-01-27T00:30:00;95959.69;;;1.87;77.13
10732;BME280;74907;42.812;23.216;2024-01-27T00:32:27;95963.84;;;1.93;76.90
10732;BME280;74907;42.812;23.216;2024-01-27T00:34:54;95969.69;;;1.99;76.90
10732;BME280;74907;42.812;23.216;2024-01-27T00:37:20;95961.94;;;2.01;76.77
10732;BME280;74907;42.812;23.216;2024-01-27T00:39:47;95959.41;;;1.99;76.84
10732;BME280;74907;42.812;23.216;2024-01-27T00:42:14;95959.50;;;1.96;76.41
10732;BME280;74907;42.812;23.216;2024-01-27T00:44:42;95963.81;;;1.94;75.82
10732;BME280;74907;42.812;23.216;2024-01-27T00:47:09;95980.03;;;1.96;75.94
10732;BME280;74907;42.812;23.216;2024-01-27T00:49:36;95968.03;;;1.97;77.06
10732;BME280;74907;42.812;23.216;2024-01-27T00:52:03;95965.41;;;2.00;77.00
10732;BME280;74907;42.812;23.216;2024-01-27T00:54:30;95964.50;;;2.01;76.02
10732;BME280;74907;42.812;23.216;2024-01-27T00:56:56;95959.41;;;1.99;76.96
10732;BME280;74907;42.812;23.216;2024-01-27T00:59:23;95968.78;;;2.02;77.05
10732;BME280;74907;42.812;23.216;2024-01-27T01:01:51;95963.59;;;2.03;76.65
10732;BME280;74907;42.812;23.216;2024-01-27T01:04:18;95968.56;;;2.12;77.05
10732;BME280;74907;42.812;23.216;2024-01-27T01:06:44;95966.69;;;2.19;77.19
10732;BME280;74907;42.812;23.216;2024-01-27T01:09:11;95968.06;;;2.32;77.17
10732;BME280;74907;42.812;23.216;2024-01-27T01:11:39;95975.66;;;2.37;76.57
10732;BME280;74907;42.812;23.216;2024-01-27T01:14:06;95982.41;;;2.41;76.17
10732;BME280;74907;42.812;23.216;2024-01-27T01:16:35;95972.78;;;2.49;75.08
10732;BME280;74907;42.812;23.216;2024-01-27T01:19:03;95967.69;;;2.47;75.90
10732;BME280;74907;42.812;23.216;2024-01-27T01:21:29;95966.16;;;2.40;74.88
10732;BME280;74907;42.812;23.216;2024-01-27T01:23:56;95960.31;;;2.34;74.70
10732;BME280;74907;42.812;23.216;2024-01-27T01:26:24;95955.22;;;2.32;75.42
10732;BME280;74907;42.812;23.216;2024-01-27T01:28:51;95948.47;;;2.28;75.64
10732;BME280;74907;42.812;23.216;2024-01-27T01:31:18;95946.03;;;2.24;75.63
10732;BME280;74907;42.812;23.216;2024-01-27T01:33:44;95949.28;;;2.30;75.58
10732;BME280;74907;42.812;23.216;2024-01-27T01:36:12;95952.72;;;2.29;76.13
10732;BME280;74907;42.812;23.216;2024-01-27T01:38:39;95953.50;;;2.33;75.87
10732;BME280;74907;42.812;23.216;2024-01-27T01:41:06;95944.63;;;2.44;75.88
10732;BME280;74907;42.812;23.216;2024-01-27T01:43:32;95939.31;;;2.52;76.25
10732;BME280;74907;42.812;23.216;2024-01-27T01:45:59;95933.13;;;2.61;75.62
10732;BME280;74907;42.812;23.216;2024-01-27T01:48:26;95935.47;;;2.68;75.73
10732;BME280;74907;42.812;23.216;2024-01-27T01:50:53;95936.16;;;2.75;75.98
10732;BME280;74907;42.812;23.216;2024-01-27T01:53:22;95941.19;;;2.79;75.59
10732;BME280;74907;42.812;23.216;2024-01-27T01:55:49;95933.34;;;2.84;74.71
10732;BME280;74907;42.812;23.216;2024-01-27T01:58:16;95921.06;;;2.94;74.41
10732;BME280;74907;42.812;23.216;2024-01-27T02:00:43;95920.19;;;2.95;74.41
10732;BME280;74907;42.812;23.216;2024-01-27T02:03:10;95929.69;;;2.93;74.07
10732;BME280;74907;42.812;23.216;2024-01-27T02:05:38;95925.28;;;2.96;73.90
10732;BME280;74907;42.812;23.216;2024-01-27T02:08:05;95924.50;;;2.94;73.62
10732;BME280;74907;42.812;23.216;2024-01-27T02:10:33;95922.81;;;2.93;72.83
10732;BME280;74907;42.812;23.216;2024-01-27T02:13:16;95928.75;;;2.95;73.56
10732;BME280;74907;42.812;23.216;2024-01-27T02:15:43;95935.66;;;2.93;73.45
10732;BME280;74907;42.812;23.216;2024-01-27T02:18:10;95926.25;;;2.92;73.75
10732;BME280;74907;42.812;23.216;2024-01-27T02:20:37;95933.09;;;2.93;73.69
10732;BME280;74907;42.812;23.216;2024-01-27T02:23:04;95936.50;;;2.94;72.95
10732;BME280;74907;42.812;23.216;2024-01-27T02:25:32;95915.09;;;2.93;72.56
10732;BME280;74907;42.812;23.216;2024-01-27T02:27:59;95921.88;;;2.96;73.39
10732;BME280;74907;42.812;23.216;2024-01-27T02:30:28;95922.84;;;2.92;73.57
10732;BME280;74907;42.812;23.216;2024-01-27T02:32:56;95925.38;;;2.93;73.92
10732;BME280;74907;42.812;23.216;2024-01-27T02:35:23;95919.31;;;2.96;73.78
10732;BME280;74907;42.812;23.216;2024-01-27T02:37:50;95925.28;;;2.96;72.99
10732;BME280;74907;42.812;23.216;2024-01-27T02:40:17;95917.38;;;3.04;73.19
10732;BME280;74907;42.812;23.216;2024-01-27T02:42:45;95917.44;;;3.01;72.91
10732;BME280;74907;42.812;23.216;2024-01-27T02:45:12;95915.72;;;3.01;72.38
10732;BME280;74907;42.812;23.216;2024-01-27T02:47:39;95914.75;;;3.05;72.29
10732;BME280;74907;42.812;23.216;2024-01-27T02:50:06;95912.00;;;3.13;72.82
10732;BME280;74907;42.812;23.216;2024-01-27T02:52:34;95921.25;;;3.19;72.71
10732;BME280;74907;42.812;23.216;2024-01-27T02:55:01;95923.06;;;3.15;72.17
10732;BME280;74907;42.812;23.216;2024-01-27T02:57:27;95926.44;;;3.17;73.36
10732;BME280;74907;42.812;23.216;2024-01-27T02:59:55;95930.75;;;3.16;72.99
10732;BME280;74907;42.812;23.216;2024-01-27T03:02:22;95935.00;;;3.17;74.50
10732;BME280;74907;42.812;23.216;2024-01-27T03:04:49;95935.06;;;3.16;74.06
10732;BME280;74907;42.812;23.216;2024-01-27T03:07:15;95935.72;;;3.23;74.99
10732;BME280;74907;42.812;23.216;2024-01-27T03:09:42;95938.47;;;3.16;74.60
10732;BME280;74907;42.812;23.216;2024-01-27T03:12:09;95934.25;;;3.14;74.61
10732;BME280;74907;42.812;23.216;2024-01-27T03:14:36;95945.31;;;3.17;74.77
10732;BME280;74907;42.812;23.216;2024-01-27T03:17:04;95942.72;;;3.17;73.44
10732;BME280;74907;42.812;23.216;2024-01-27T03:19:31;95938.28;;;3.23;73.67
10732;BME280;74907;42.812;23.216;2024-01-27T03:21:57;95934.84;;;3.24;73.55
10732;BME280;74907;42.812;23.216;2024-01-27T03:24:24;95938.13;;;3.29;74.36
10732;BME280;74907;42.812;23.216;2024-01-27T03:26:51;95933.69;;;3.34;75.40
10732;BME280;74907;42.812;23.216;2024-01-27T03:29:17;95927.66;;;3.35;76.67
10732;BME280;74907;42.812;23.216;2024-01-27T03:31:44;95929.34;;;3.36;77.65
10732;BME280;74907;42.812;23.216;2024-01-27T03:34:12;95924.09;;;3.39;78.22
10732;BME280;74907;42.812;23.216;2024-01-27T03:36:39;95915.50;;;3.40;78.48
10732;BME280;74907;42.812;23.216;2024-01-27T03:39:06;95913.81;;;3.39;79.72
10732;BME280;74907;42.812;23.216;2024-01-27T03:41:33;95908.78;;;3.34;80.76
10732;BME280;74907;42.812;23.216;2024-01-27T03:44:00;95903.81;;;3.28;81.70
10732;BME280;74907;42.812;23.216;2024-01-27T03:46:26;95910.13;;;3.18;83.55
10732;BME280;74907;42.812;23.216;2024-01-27T03:48:53;95913.53;;;3.19;83.88
10732;BME280;74907;42.812;23.216;2024-01-27T03:51:21;95918.91;;;3.09;83.66
10732;BME280;74907;42.812;23.216;2024-01-27T03:53:48;95920.03;;;3.01;85.68
10732;BME280;74907;42.812;23.216;2024-01-27T03:56:15;95921.03;;;2.95;85.74
10732;BME280;74907;42.812;23.216;2024-01-27T03:58:41;95919.69;;;2.82;86.56
10732;BME280;74907;42.812;23.216;2024-01-27T04:01:08;95919.84;;;2.76;87.03
10732;BME280;74907;42.812;23.216;2024-01-27T04:03:35;95914.59;;;2.80;87.85
10732;BME280;74907;42.812;23.216;2024-01-27T04:06:01;95925.88;;;2.75;87.59
10732;BME280;74907;42.812;23.216;2024-01-27T04:08:30;95914.72;;;2.76;88.16
10732;BME280;74907;42.812;23.216;2024-01-27T04:10:57;95909.91;;;2.64;88.76
10732;BME280;74907;42.812;23.216;2024-01-27T04:13:24;95904.69;;;2.67;88.37
10732;BME280;74907;42.812;23.216;2024-01-27T04:15:50;95914.28;;;2.59;88.28
10732;BME280;74907;42.812;23.216;2024-01-27T04:18:19;95917.84;;;2.53;89.31
10732;BME280;74907;42.812;23.216;2024-01-27T04:20:45;95918.03;;;2.47;89.24
10732;BME280;74907;42.812;23.216;2024-01-27T04:23:13;95906.91;;;2.46;89.71
10732;BME280;74907;42.812;23.216;2024-01-27T04:25:42;95909.53;;;2.43;88.70
10732;BME280;74907;42.812;23.216;2024-01-27T04:28:09;95904.25;;;2.49;89.32
10732;BME280;74907;42.812;23.216;2024-01-27T04:30:37;95906.69;;;2.54;89.34
10732;BME280;74907;42.812;23.216;2024-01-27T04:33:04;95904.09;;;2.56;88.32
10732;BME280;74907;42.812;23.216;2024-01-27T04:35:32;95902.38;;;2.56;88.43
10732;BME280;74907;42.812;23.216;2024-01-27T04:37:59;95898.03;;;2.58;88.93
10732;BME280;74907;42.812;23.216;2024-01-27T04:40:26;95899.72;;;2.59;88.99
10732;BME280;74907;42.812;23.216;2024-01-27T04:42:54;95900.59;;;2.58;89.89
10732;BME280;74907;42.812;23.216;2024-01-27T04:45:21;95897.13;;;2.59;88.96
10732;BME280;74907;42.812;23.216;2024-01-27T04:47:47;95901.56;;;2.54;89.10
10732;BME280;74907;42.812;23.216;2024-01-27T04:50:14;95920.34;;;2.56;89.37
10732;BME280;74907;42.812;23.216;2024-01-27T04:52:41;95909.16;;;2.59;89.36
10732;BME280;74907;42.812;23.216;2024-01-27T04:55:07;95920.34;;;2.56;89.83
10732;BME280;74907;42.812;23.216;2024-01-27T04:57:34;95923.75;;;2.57;89.27
10732;BME280;74907;42.812;23.216;2024-01-27T05:00:03;95923.25;;;2.44;89.53
10732;BME280;74907;42.812;23.216;2024-01-27T05:02:32;95926.66;;;2.44;89.96
10732;BME280;74907;42.812;23.216;2024-01-27T05:04:59;95928.31;;;2.47;89.68
10732;BME280;74907;42.812;23.216;2024-01-27T05:07:26;95929.25;;;2.43;90.84
10732;BME280;74907;42.812;23.216;2024-01-27T05:09:53;95923.19;;;2.45;90.60
10732;BME280;74907;42.812;23.216;2024-01-27T05:12:19;95920.59;;;2.47;90.27
10732;BME280;74907;42.812;23.216;2024-01-27T05:14:46;95924.84;;;2.48;90.33
10732;BME280;74907;42.812;23.216;2024-01-27T05:17:14;95928.25;;;2.48;91.06
10732;BME280;74907;42.812;23.216;2024-01-27T05:19:41;95929.06;;;2.50;92.10
10732;BME280;74907;42.812;23.216;2024-01-27T05:22:08;95922.97;;;2.54;92.25
10732;BME280;74907;42.812;23.216;2024-01-27T05:24:35;95924.69;;;2.54;92.14
10732;BME280;74907;42.812;23.216;2024-01-27T05:27:01;95933.16;;;2.58;92.85
10732;BME280;74907;42.812;23.216;2024-01-27T05:29:28;95931.56;;;2.53;91.93
10732;BME280;74907;42.812;23.216;2024-01-27T05:31:55;95931.56;;;2.53;92.70
10732;BME280;74907;42.812;23.216;2024-01-27T05:34:23;95934.03;;;2.57;93.36
10732;BME280;74907;42.812;23.216;2024-01-27T05:36:50;95940.03;;;2.57;93.49
10732;BME280;74907;42.812;23.216;2024-01-27T05:39:16;95929.66;;;2.62;93.45
10732;BME280;74907;42.812;23.216;2024-01-27T05:41:43;95931.19;;;2.69;93.37
10732;BME280;74907;42.812;23.216;2024-01-27T05:44:10;95940.63;;;2.68;92.94
10732;BME280;74907;42.812;23.216;2024-01-27T05:46:37;95938.81;;;2.72;92.37
10732;BME280;74907;42.812;23.216;2024-01-27T05:49:03;95942.22;;;2.72;93.05
10732;BME280;74907;42.812;23.216;2024-01-27T05:51:32;95949.19;;;2.69;92.82
10732;BME280;74907;42.812;23.216;2024-01-27T05:53:59;95939.75;;;2.69;92.33
10732;BME280;74907;42.812;23.216;2024-01-27T05:56:25;95945.75;;;2.68;93.00
10732;BME280;74907;42.812;23.216;2024-01-27T05:58:52;95944.06;;;2.67;92.58
10732;BME280;74907;42.812;23.216;2024-01-27T06:01:19;95945.72;;;2.70;93.46
10732;BME280;74907;42.812;23.216;2024-01-27T06:03:46;95942.34;;;2.68;93.82
10732;BME280;74907;42.812;23.216;2024-01-27T06:06:13;95939.66;;;2.72;93.06
10732;BME280;74907;42.812;23.216;2024-01-27T06:08:42;95946.69;;;2.66;93.35
10732;BME280;74907;42.812;23.216;2024-01-27T06:11:08;95953.56;;;2.65;93.45
10732;BME280;74907;42.812;23.216;2024-01-27T06:13:35;95951.03;;;2.64;93.77
10732;BME280;74907;42.812;23.216;2024-01-27T06:16:06;95946.81;;;2.61;94.67
10732;BME280;74907;42.812;23.216;2024-01-27T06:18:34;95958.91;;;2.56;94.50
10732;BME280;74907;42.812;23.216;2024-01-27T06:21:01;95967.31;;;2.63;95.30
10732;BME280;74907;42.812;23.216;2024-01-27T06:23:27;95975.03;;;2.63;94.95
10732;BME280;74907;42.812;23.216;2024-01-27T06:25:55;95974.88;;;2.69;94.80
10732;BME280;74907;42.812;23.216;2024-01-27T06:28:22;95990.22;;;2.72;94.40
10732;BME280;74907;42.812;23.216;2024-01-27T06:30:49;96000.41;;;2.76;95.25
10732;BME280;74907;42.812;23.216;2024-01-27T06:33:15;96009.78;;;2.77;95.42
10732;BME280;74907;42.812;23.216;2024-01-27T06:35:42;96013.91;;;2.84;94.43
10732;BME280;74907;42.812;23.216;2024-01-27T06:38:09;96008.66;;;2.88;95.20
10732;BME280;74907;42.812;23.216;2024-01-27T06:40:35;96013.97;;;2.81;94.38
10732;BME280;74907;42.812;23.216;2024-01-27T06:43:04;96005.41;;;2.81;94.27
10732;BME280;74907;42.812;23.216;2024-01-27T06:45:30;96010.63;;;2.78;94.78
10732;BME280;74907;42.812;23.216;2024-01-27T06:47:57;96011.44;;;2.80;95.45
10732;BME280;74907;42.812;23.216;2024-01-27T06:50:24;96002.72;;;2.85;95.16
10732;BME280;74907;42.812;23.216;2024-01-27T06:52:50;96000.97;;;2.88;95.00
10732;BME280;74907;42.812;23.216;2024-01-27T06:55:18;96005.19;;;2.90;94.29
10732;BME280;74907;42.812;23.216;2024-01-27T06:57:44;96002.69;;;2.87;94.48
10732;BME280;74907;42.812;23.216;2024-01-27T07:00:13;96007.88;;;2.85;94.18
10732;BME280;74907;42.812;23.216;2024-01-27T07:02:40;96003.66;;;2.83;94.23
10732;BME280;74907;42.812;23.216;2024-01-27T07:05:08;96013.84;;;2.86;94.51
10732;BME280;74907;42.812;23.216;2024-01-27T07:07:34;96006.91;;;2.90;94.27
10732;BME280;74907;42.812;23.216;2024-01-27T07:10:01;96008.47;;;2.95;94.80
10732;BME280;74907;42.812;23.216;2024-01-27T07:12:28;96010.97;;;2.98;94.13
10732;BME280;74907;42.812;23.216;2024-01-27T07:14:55;96006.47;;;3.06;94.55
10732;BME280;74907;42.812;23.216;2024-01-27T07:17:23;96006.50;;;3.05;93.28
10732;BME280;74907;42.812;23.216;2024-01-27T07:19:50;95997.94;;;3.04;93.15
10732;BME280;74907;42.812;23.216;2024-01-27T07:22:17;96006.31;;;3.12;93.30
10732;BME280;74907;42.812;23.216;2024-01-27T07:24:43;96011.47;;;3.12;93.37
10732;BME280;74907;42.812;23.216;2024-01-27T07:27:12;96029.09;;;3.26;93.34
10732;BME280;74907;42.812;23.216;2024-01-27T07:29:39;96050.41;;;3.31;93.24
10732;BME280;74907;42.812;23.216;2024-01-27T07:32:05;96049.47;;;3.34;93.02
10732;BME280;74907;42.812;23.216;2024-01-27T07:34:34;96050.16;;;3.40;92.56
10732;BME280;74907;42.812;23.216;2024-01-27T07:37:01;96056.06;;;3.44;92.11
10732;BME280;74907;42.812;23.216;2024-01-27T07:39:27;96050.03;;;3.45;91.75
10732;BME280;74907;42.812;23.216;2024-01-27T07:41:54;96060.13;;;3.53;90.72
10732;BME280;74907;42.812;23.216;2024-01-27T07:44:21;96056.22;;;3.70;89.51
10732;BME280;74907;42.812;23.216;2024-01-27T07:46:47;96054.13;;;3.83;89.48
10732;BME280;74907;42.812;23.216;2024-01-27T07:49:14;96057.38;;;3.90;88.69
10732;BME280;74907;42.812;23.216;2024-01-27T07:51:42;96051.84;;;4.02;87.71
10732;BME280;74907;42.812;23.216;2024-01-27T07:54:09;96047.41;;;4.07;86.56
10732;BME280;74907;42.812;23.216;2024-01-27T07:56:37;96048.13;;;4.12;86.68
10732;BME280;74907;42.812;23.216;2024-01-27T07:59:04;96027.34;;;4.18;85.54
10732;BME280;74907;42.812;23.216;2024-01-27T08:01:30;96035.91;;;4.19;85.39
10732;BME280;74907;42.812;23.216;2024-01-27T08:03:57;96039.19;;;4.24;85.49
10732;BME280;74907;42.812;23.216;2024-01-27T08:06:28;96056.22;;;4.29;84.83
10732;BME280;74907;42.812;23.216;2024-01-27T08:08:56;96073.13;;;4.38;84.77
10732;BME280;74907;42.812;23.216;2024-01-27T08:11:23;96057.66;;;4.38;83.97
10732;BME280;74907;42.812;23.216;2024-01-27T08:13:50;96042.22;;;4.64;85.50
10732;BME280;74907;42.812;23.216;2024-01-27T08:16:17;96053.13;;;4.99;83.29
10732;BME280;74907;42.812;23.216;2024-01-27T08:18:44;96050.59;;;4.97;82.34
10732;BME280;74907;42.812;23.216;2024-01-27T08:21:11;96044.34;;;5.04;81.92
10732;BME280;74907;42.812;23.216;2024-01-27T08:23:38;96060.63;;;5.06;80.91
10732;BME280;74907;42.812;23.216;2024-01-27T08:26:06;96046.13;;;5.02;79.80
10732;BME280;74907;42.812;23.216;2024-01-27T08:28:32;96019.91;;;5.15;81.01
10732;BME280;74907;42.812;23.216;2024-01-27T08:30:59;96024.25;;;5.39;80.04
10732;BME280;74907;42.812;23.216;2024-01-27T08:33:27;96031.94;;;5.41;79.44
10732;BME280;74907;42.812;23.216;2024-01-27T08:35:53;96046.47;;;5.43;78.86
10732;BME280;74907;42.812;23.216;2024-01-27T08:38:20;96021.94;;;5.31;78.88
10732;BME280;74907;42.812;23.216;2024-01-27T08:40:47;96011.22;;;5.42;78.95
10732;BME280;74907;42.812;23.216;2024-01-27T08:43:15;95999.44;;;5.58;79.04
10732;BME280;74907;42.812;23.216;2024-01-27T08:45:41;95993.63;;;5.77;78.61
10732;BME280;74907;42.812;23.216;2024-01-27T08:48:08;96000.13;;;5.87;78.55
10732;BME280;74907;42.812;23.216;2024-01-27T08:50:35;95992.13;;;5.94;77.71
10732;BME280;74907;42.812;23.216;2024-01-27T08:53:01;96009.47;;;5.91;76.68
10732;BME280;74907;42.812;23.216;2024-01-27T08:55:29;96008.28;;;5.99;76.71
10732;BME280;74907;42.812;23.216;2024-01-27T08:57:56;96016.28;;;5.93;76.42
10732;BME280;74907;42.812;23.216;2024-01-27T09:00:24;96015.94;;;6.03;76.68
10732;BME280;74907;42.812;23.216;2024-01-27T09:02:52;96023.75;;;6.23;76.70
10732;BME280;74907;42.812;23.216;2024-01-27T09:05:19;96018.03;;;6.38;76.47
10732;BME280;74907;42.812;23.216;2024-01-27T09:07:45;96019.47;;;6.45;75.25
10732;BME280;74907;42.812;23.216;2024-01-27T09:10:13;96028.97;;;6.45;74.22
10732;BME280;74907;42.812;23.216;2024-01-27T09:12:41;96021.56;;;6.36;74.33
10732;BME280;74907;42.812;23.216;2024-01-27T09:15:08;96032.09;;;6.53;74.28
10732;BME280;74907;42.812;23.216;2024-01-27T09:17:36;96017.75;;;6.66;74.84
10732;BME280;74907;42.812;23.216;2024-01-27T09:20:03;96021.94;;;6.48;74.15
10732;BME280;74907;42.812;23.216;2024-01-27T09:22:31;96026.00;;;6.54;73.79
10732;BME280;74907;42.812;23.216;2024-01-27T09:24:58;96024.63;;;6.45;74.80
10732;BME280;74907;42.812;23.216;2024-01-27T09:27:24;96024.41;;;6.51;75.26
10732;BME280;74907;42.812;23.216;2024-01-27T09:29:51;96016.03;;;6.45;74.38
10732;BME280;74907;42.812;23.216;2024-01-27T09:32:18;96018.44;;;6.27;74.35
10732;BME280;74907;42.812;23.216;2024-01-27T09:34:46;96025.38;;;6.04;75.62
10732;BME280;74907;42.812;23.216;2024-01-27T09:37:13;96028.06;;;6.00;75.52
10732;BME280;74907;42.812;23.216;2024-01-27T09:39:39;96034.13;;;5.99;74.82
10732;BME280;74907;42.812;23.216;2024-01-27T09:42:07;96046.88;;;6.04;75.25
10732;BME280;74907;42.812;23.216;2024-01-27T09:44:35;96034.06;;;6.01;74.92
10732;BME280;74907;42.812;23.216;2024-01-27T09:47:03;96048.75;;;6.00;74.63
10732;BME280;74907;42.812;23.216;2024-01-27T09:49:31;96043.06;;;5.91;74.17
10732;BME280;74907;42.812;23.216;2024-01-27T09:51:59;96036.09;;;5.93;74.68
10732;BME280;74907;42.812;23.216;2024-01-27T09:54:27;96050.13;;;5.86;75.25
10732;BME280;74907;42.812;23.216;2024-01-27T09:56:54;96055.28;;;5.86;74.57
10732;BME280;74907;42.812;23.216;2024-01-27T09:59:22;96035.75;;;5.79;74.03
10732;BME280;74907;42.812;23.216;2024-01-27T10:01:52;96043.91;;;5.66;74.16
10732;BME280;74907;42.812;23.216;2024-01-27T10:04:19;96040.50;;;5.66;74.76
10732;BME280;74907;42.812;23.216;2024-01-27T10:06:46;96029.44;;;5.62;74.85
10732;BME280;74907;42.812;23.216;2024-01-27T10:09:16;96017.47;;;5.60;74.72
10732;BME280;74907;42.812;23.216;2024-01-27T10:11:46;96015.00;;;5.57;74.45
10732;BME280;74907;42.812;23.216;2024-01-27T10:14:13;96027.84;;;5.58;74.35
10732;BME280;74907;42.812;23.216;2024-01-27T10:16:41;96021.56;;;5.65;74.80
10732;BME280;74907;42.812;23.216;2024-01-27T10:19:12;96033.91;;;5.57;74.54
10732;BME280;74907;42.812;23.216;2024-01-27T10:21:40;96044.72;;;5.44;74.50
10732;BME280;74907;42.812;23.216;2024-01-27T10:24:07;96043.22;;;5.38;75.26
10732;BME280;74907;42.812;23.216;2024-01-27T10:26:35;96048.38;;;5.38;75.76
10732;BME280;74907;42.812;23.216;2024-01-27T10:29:02;96051.44;;;5.24;74.49
10732;BME280;74907;42.812;23.216;2024-01-27T10:31:30;96025.41;;;5.30;75.09
10732;BME280;74907;42.812;23.216;2024-01-27T10:33:58;96041.75;;;5.31;75.37
10732;BME280;74907;42.812;23.216;2024-01-27T10:36:37;96044.78;;;5.42;75.25
10732;BME280;74907;42.812;23.216;2024-01-27T10:39:14;96048.31;;;5.39;75.19
10732;BME280;74907;42.812;23.216;2024-01-27T10:41:44;96050.00;;;5.41;75.68
10732;BME280;74907;42.812;23.216;2024-01-27T10:44:14;96049.94;;;5.42;75.52
10732;BME280;74907;42.812;23.216;2024-01-27T10:46:43;96046.09;;;5.54;75.27
10732;BME280;74907;42.812;23.216;2024-01-27T10:49:12;96064.28;;;5.51;75.31
10732;BME280;74907;42.812;23.216;2024-01-27T10:51:43;96053.72;;;5.57;74.85
10732;BME280;74907;42.812;23.216;2024-01-27T10:54:14;96063.91;;;5.61;74.81
10732;BME280;74907;42.812;23.216;2024-01-27T10:56:43;96074.19;;;5.63;74.66
10732;BME280;74907;42.812;23.216;2024-01-27T10:59:13;96067.59;;;5.54;75.14
10732;BME280;74907;42.812;23.216;2024-01-27T11:01:41;96071.69;;;5.60;74.91
10732;BME280;74907;42.812;23.216;2024-01-27T11:04:08;96079.50;;;5.58;74.59
10732;BME280;74907;42.812;23.216;2024-01-27T11:06:39;96085.63;;;5.56;76.24
10732;BME280;74907;42.812;23.216;2024-01-27T11:09:08;96079.44;;;5.60;74.84
10732;BME280;74907;42.812;23.216;2024-01-27T11:11:37;96088.47;;;5.73;74.26
10732;BME280;74907;42.812;23.216;2024-01-27T11:14:06;96092.69;;;5.76;74.47
10732;BME280;74907;42.812;23.216;2024-01-27T11:16:34;96093.66;;;5.73;74.84
10732;BME280;74907;42.812;23.216;2024-01-27T11:19:00;96089.47;;;5.69;74.50
10732;BME280;74907;42.812;23.216;2024-01-27T11:21:27;96093.47;;;5.78;74.77
10732;BME280;74907;42.812;23.216;2024-01-27T11:23:54;96084.19;;;5.97;74.33
10732;BME280;74907;42.812;23.216;2024-01-27T11:26:22;96078.88;;;6.25;73.34
10732;BME280;74907;42.812;23.216;2024-01-27T11:28:51;96092.72;;;6.22;71.63
10732;BME280;74907;42.812;23.216;2024-01-27T11:31:20;96097.28;;;6.39;72.18
10732;BME280;74907;42.812;23.216;2024-01-27T11:33:48;96100.06;;;6.56;71.06
10732;BME280;74907;42.812;23.216;2024-01-27T11:36:21;96098.22;;;6.82;69.67
10732;BME280;74907;42.812;23.216;2024-01-27T11:38:48;96099.59;;;6.90;69.90
10732;BME280;74907;42.812;23.216;2024-01-27T11:41:23;96100.50;;;6.89;69.29
10732;BME280;74907;42.812;23.216;2024-01-27T11:43:54;96112.25;;;6.98;68.67
10732;BME280;74907;42.812;23.216;2024-01-27T11:46:23;96111.72;;;6.90;68.82
10732;BME280;74907;42.812;23.216;2024-01-27T11:48:49;96107.53;;;6.64;67.83
10732;BME280;74907;42.812;23.216;2024-01-27T11:51:17;96119.84;;;6.57;68.79
10732;BME280;74907;42.812;23.216;2024-01-27T11:53:45;96111.88;;;6.63;68.77
10732;BME280;74907;42.812;23.216;2024-01-27T11:56:12;96090.50;;;6.58;69.44
10732;BME280;74907;42.812;23.216;2024-01-27T11:58:46;96064.03;;;6.52;69.27
10732;BME280;74907;42.812;23.216;2024-01-27T12:01:13;96087.28;;;6.30;69.29
10732;BME280;74907;42.812;23.216;2024-01-27T12:03:41;96084.19;;;6.20;69.27
10732;BME280;74907;42.812;23.216;2024-01-27T12:06:08;96078.47;;;6.12;70.05
10732;BME280;74907;42.812;23.216;2024-01-27T12:08:35;96066.31;;;6.14;70.03
10732;BME280;74907;42.812;23.216;2024-01-27T12:11:02;96071.50;;;6.14;69.65
10732;BME280;74907;42.812;23.216;2024-01-27T12:13:29;96076.00;;;6.09;69.78
10732;BME280;74907;42.812;23.216;2024-01-27T12:15:56;96100.22;;;6.07;70.85
10732;BME280;74907;42.812;23.216;2024-01-27T12:18:23;96085.78;;;6.01;70.17
10732;BME280;74907;42.812;23.216;2024-01-27T12:20:56;96081.56;;;5.98;69.95
10732;BME280;74907;42.812;23.216;2024-01-27T12:23:23;96080.38;;;6.07;70.64
10732;BME280;74907;42.812;23.216;2024-01-27T12:25:52;96093.81;;;5.93;70.74
10732;BME280;74907;42.812;23.216;2024-01-27T12:28:22;96100.00;;;5.88;70.53
10732;BME280;74907;42.812;23.216;2024-01-27T12:30:49;96104.19;;;5.92;71.88
10732;BME280;74907;42.812;23.216;2024-01-27T12:33:15;96114.31;;;5.98;70.76
10732;BME280;74907;42.812;23.216;2024-01-27T12:35:45;96111.72;;;5.98;70.20
10732;BME280;74907;42.812;23.216;2024-01-27T12:38:13;96118.75;;;5.94;70.42
10732;BME280;74907;42.812;23.216;2024-01-27T12:40:39;96128.13;;;5.97;70.61
10732;BME280;74907;42.812;23.216;2024-01-27T12:43:06;96128.47;;;5.86;69.56
10732;BME280;74907;42.812;23.216;2024-01-27T12:45:33;96111.50;;;6.04;70.00
10732;BME280;74907;42.812;23.216;2024-01-27T12:48:00;96128.47;;;5.86;69.35
10732;BME280;74907;42.812;23.216;2024-01-27T12:50:27;96119.22;;;5.81;69.58
10732;BME280;74907;42.812;23.216;2024-01-27T12:52:55;96127.59;;;5.87;69.57
10732;BME280;74907;42.812;23.216;2024-01-27T12:55:23;96121.69;;;5.84;68.72
10732;BME280;74907;42.812;23.216;2024-01-27T12:57:50;96124.00;;;5.66;67.43
10732;BME280;74907;42.812;23.216;2024-01-27T13:00:17;96142.91;;;5.67;67.68